Diba, Oman

4:18 AM GST on July 23, 2014 (GMT +0400)
Ras Al Khaimah International (OMRK) Elev 102 ft | 25.61 °N, 55.94 °E | Change Station

Current weather conditions updated 18 minutes ago

Clear
Clear
88 °F
Feels Like 100 °F
N
8
Wind Variable Wind from South

Today is forecast to be Cooler than yesterday.

Today
High -- | Low -- °F
--% Chance of Precip.
Yesterday
High -- | Low -- °F
Precip. -- in
5:37 AM 7:05 PM
Waning Crescent, 14% visible
Pressure 29.42 in
Visibility -9999.0 miles
Clouds
Heat Index 100 °F
Dew Point 77 °F
Humidity 70%
Rainfall 0.00 in
Snow Depth Not available.
UV Not available.
Pollen Not available.
Air Quality Not available.
Flu Activity Not available.
METAR OMRK 230000Z 18007KT CAVOK 31/25 Q0996 A2944

More Conditions Fewer Conditions

Pressure 29.42 in
Visibility -9999.0 miles
Clouds
Heat Index 100 °F
Dew Point 77 °F
Humidity 70%
Rainfall 0.00 in
Snow Depth Not available.
UV Not available.
Pollen Not available.
Air Quality Not available.
Flu Activity Not available.
METAR OMRK 230000Z 18007KT CAVOK 31/25 Q0996 A2944

More Conditions Fewer Conditions

10-Day Weather Forecast

Almanac

Astronomy

Jul. 23, 2014 Rise Set
Actual Time 5:37 AM GST 7:05 PM GST
Civil Twilight 5:11 AM GST 7:30 PM GST
Nautical Twilight 4:41 AM GST 8:00 PM GST
Astronomical Twilight 4:10 AM GST 8:31 PM GST
Moon 2:34 AM GST 4:16 PM GST
Length of Visible Light 14h 18m
Length of Day
13h 28m
Tomorrow will be 0m 56s shorter.
Waning Crescent, 14% of the Moon is Illuminated
Jul 22
Waning Crescent
Jul 26
New
Aug 3
First Quarter
Aug 10
Full
Aug 17
Last Quarter

Yesterday's Extremes

Country Highs Country Lows

Community

WunderPhotos

Upload Photos

1,736,411 photos uploaded!

Nearby

Snow Depth

Not available.

Earthquake Activity

City Distance Mag. Time & Date
No recent earthquake activity has been reported nearby.
Minimum magnitude displayed is 2.5.

Coastal Water Temperatures

Place Temperature
No Stations Reporting

Nearby Weather Stations

There are no personal weather stations in this area.